Time;durP1;ratioP1;P1;durP2;ratioP2;P2;SDS_P1;SDS_P2;PMS_P1;PMS_P2;Temp;Humidity;BMP_temperature;BMP_pressure;BME280_temperature;BME280_humidity;BME280_pressure;Samples;Min_cycle;Max_cycle;Signal;HPM_P1;HPM_P2
2022/03/28 03:55:45;;;;;;;18.40;10.07;;;;;;;4.94;55.76;101487.09;6002568;27;20150;-88
2022/03/28 03:58:48;;;;;;;20.02;9.80;;;;;;;4.99;56.56;101479.56;5407951;27;34335;-88
2022/03/28 04:01:51;;;;;;;24.15;10.00;;;;;;;4.93;55.67;101481.84;5423845;27;33943;-88
2022/03/28 04:04:54;;;;;;;18.80;10.10;;;;;;;4.94;56.77;101481.75;5441636;27;33707;-88
2022/03/28 04:07:57;;;;;;;28.38;10.95;;;;;;;4.93;55.76;101480.03;5385322;27;35667;-88
2022/03/28 04:11:00;;;;;;;18.77;10.63;;;;;;;5.00;56.05;101488.41;5362182;33;34406;-88
2022/03/28 04:14:03;;;;;;;20.15;10.18;;;;;;;4.96;56.95;101489.62;5361987;33;34266;-87
2022/03/28 04:17:06;;;;;;;25.70;11.07;;;;;;;4.99;56.96;101482.22;5406416;28;34615;-87
2022/03/28 04:20:12;;;;;;;22.23;10.13;;;;;;;4.98;57.02;101490.38;5362860;33;34182;-87
2022/03/28 04:23:16;;;;;;;23.25;10.75;;;;;;;4.99;56.57;101494.72;5375545;33;33960;-87
2022/03/28 04:26:18;;;;;;;20.05;9.90;;;;;;;4.94;57.48;101488.88;5377147;33;33634;-87
2022/03/28 04:29:21;;;;;;;21.67;11.88;;;;;;;5.00;56.94;101493.75;5374299;33;33562;-87
2022/03/28 04:32:24;;;;;;;22.62;11.15;;;;;;;5.00;56.89;101493.75;5397311;28;35324;-87
2022/03/28 04:35:27;;;;;;;22.40;11.05;;;;;;;4.98;57.32;101485.03;5362384;33;33986;-87
2022/03/28 04:38:30;;;;;;;26.37;11.68;;;;;;;4.97;57.83;101484.19;5361954;33;33968;-87
2022/03/28 04:41:33;;;;;;;21.80;11.32;;;;;;;4.93;58.17;101487.19;5361926;33;34645;-87
2022/03/28 04:44:41;;;;;;;27.75;12.35;;;;;;;4.93;59.28;101480.03;5362720;33;33919;-87
2022/03/28 04:47:44;;;;;;;25.05;12.70;;;;;;;4.91;59.75;101486.44;5361904;33;34887;-87
2022/03/28 04:50:47;;;;;;;30.85;14.20;;;;;;;4.96;60.45;101489.62;5362155;33;33953;-87
2022/03/28 04:53:50;;;;;;;33.35;14.75;;;;;;;4.99;61.54;101484.91;5362205;33;33887;-87
2022/03/28 04:56:53;;;;;;;24.70;14.73;;;;;;;5.07;64.98;101481.69;5363249;33;35316;-87
2022/03/28 04:59:56;;;;;;;29.10;14.30;;;;;;;5.14;65.57;101482.06;5366559;33;35144;-91
2022/03/28 05:02:59;;;;;;;31.58;14.98;;;;;;;5.05;64.44;101475.59;5402433;28;35771;-91
2022/03/28 05:06:19;;;;;;;28.95;15.00;;;;;;;5.13;64.79;101489.22;5418969;27;35714;-86
2022/03/28 05:09:22;;;;;;;28.10;16.40;;;;;;;5.11;66.58;101491.13;5373572;33;34299;-89
2022/03/28 05:12:26;;;;;;;32.47;17.12;;;;;;;5.18;67.85;101484.37;5376668;33;34941;-88
2022/03/28 05:15:28;;;;;;;26.92;16.45;;;;;;;5.24;67.54;101485.75;5375242;33;34215;-87
2022/03/28 05:18:31;;;;;;;28.25;16.05;;;;;;;5.25;67.62;101479.44;5369042;33;33984;-87
2022/03/28 05:21:34;;;;;;;28.73;15.73;;;;;;;5.23;67.11;101490.25;5413401;27;34536;-89
2022/03/28 05:24:42;;;;;;;27.58;15.43;;;;;;;5.40;66.42;101482.75;5383475;33;33982;-89
2022/03/28 05:27:45;;;;;;;31.52;16.77;;;;;;;5.58;64.47;101484.00;5375462;33;34778;-88
2022/03/28 05:30:49;;;;;;;33.08;16.10;;;;;;;5.74;63.77;101482.84;5382734;33;34152;-88
2022/03/28 05:33:51;;;;;;;32.35;16.92;;;;;;;5.80;63.22;101488.53;5381407;33;33782;-88
2022/03/28 05:36:54;;;;;;;28.90;15.73;;;;;;;5.99;63.59;101482.62;5381034;33;33987;-88
2022/03/28 05:39:57;;;;;;;33.72;16.92;;;;;;;6.18;62.20;101491.88;5376905;33;34518;-88
2022/03/28 05:43:01;;;;;;;28.70;16.33;;;;;;;6.34;61.17;101487.00;5380469;33;33550;-88
2022/03/28 05:46:05;;;;;;;36.60;16.02;;;;;;;6.56;61.10;101491.47;5380542;33;33735;-88
2022/03/28 05:49:08;;;;;;;25.45;14.95;;;;;;;6.72;60.02;101488.38;5375782;33;33960;-88
2022/03/28 05:52:11;;;;;;;32.65;15.38;;;;;;;6.79;59.59;101487.78;5378574;33;34316;-88
2022/03/28 05:55:14;;;;;;;22.23;12.88;;;;;;;6.99;58.73;101483.47;5379820;33;34067;-88
2022/03/28 05:58:16;;;;;;;31.25;14.30;;;;;;;7.20;57.39;101485.31;5379469;33;35587;-88
2022/03/28 06:01:19;;;;;;;29.20;15.35;;;;;;;7.35;56.67;101477.81;5353071;33;34634;-88
2022/03/28 06:04:22;;;;;;;31.35;12.63;;;;;;;7.45;56.20;101479.56;5358694;33;34803;-88
2022/03/28 06:07:25;;;;;;;25.08;12.37;;;;;;;7.52;55.73;101482.59;5355754;33;34116;-88
2022/03/28 06:10:28;;;;;;;22.13;11.38;;;;;;;7.65;53.57;101474.34;5347619;33;34091;-88
2022/03/28 06:13:31;;;;;;;20.67;10.73;;;;;;;7.68;52.63;101472.25;5347932;33;34999;-88
2022/03/28 06:16:34;;;;;;;22.65;12.25;;;;;;;7.78;51.44;101480.38;5347252;33;33939;-88
2022/03/28 06:19:37;;;;;;;31.85;12.05;;;;;;;8.04;52.32;101471.84;5355839;33;33906;-88
2022/03/28 06:22:41;;;;;;;26.08;10.82;;;;;;;8.29;51.21;101463.34;5357620;33;34437;-87
2022/03/28 06:25:43;;;;;;;20.75;11.30;;;;;;;8.50;48.94;101465.13;5355004;33;33650;-87
2022/03/28 06:28:47;;;;;;;28.65;10.68;;;;;;;8.80;48.12;101473.13;5353735;33;34039;-87
2022/03/28 06:31:50;;;;;;;21.60;10.05;;;;;;;8.94;45.42;101463.78;5349666;33;33893;-87
2022/03/28 06:34:53;;;;;;;26.60;11.20;;;;;;;8.99;44.46;101463.38;5357516;33;35328;-88
2022/03/28 06:37:55;;;;;;;29.52;11.20;;;;;;;9.16;43.71;101468.03;5352341;33;34453;-88
2022/03/28 06:40:58;;;;;;;26.73;11.77;;;;;;;9.22;43.70;101461.25;5362847;33;34849;-88
2022/03/28 06:44:01;;;;;;;22.37;10.68;;;;;;;9.28;43.27;101458.84;5451756;28;34197;-88
2022/03/28 06:47:05;;;;;;;25.60;11.75;;;;;;;9.43;43.09;101453.87;5388527;33;34453;-89
2022/03/28 06:50:08;;;;;;;27.50;11.82;;;;;;;9.58;42.31;101456.94;5386360;33;34924;-87
2022/03/28 06:53:12;;;;;;;33.05;13.07;;;;;;;9.74;42.03;101445.59;5373504;33;34716;-87
2022/03/28 06:56:16;;;;;;;23.52;11.27;;;;;;;9.90;41.26;101453.87;5369109;33;33773;-87
2022/03/28 06:59:20;;;;;;;25.83;10.60;;;;;;;9.96;40.44;101450.59;5366774;33;33069;-87
2022/03/28 07:02:23;;;;;;;17.75;8.82;;;;;;;10.30;39.41;101447.37;5368823;33;34989;-88
2022/03/28 07:05:28;;;;;;;19.60;9.02;;;;;;;10.50;36.62;101449.94;5371032;33;35401;-90
2022/03/28 07:08:31;;;;;;;19.75;9.75;;;;;;;10.36;34.62;101440.56;5370264;33;34104;-91
2022/03/28 07:11:36;;;;;;;22.80;8.82;;;;;;;10.46;34.70;101440.50;5375801;33;34409;-88
2022/03/28 07:14:39;;;;;;;23.35;9.55;;;;;;;10.89;33.89;101431.69;5374118;33;33886;-87
2022/03/28 07:17:51;;;;;;;17.25;9.25;;;;;;;11.16;33.44;101432.59;5377078;33;33627;-86
2022/03/28 07:20:54;;;;;;;19.83;9.05;;;;;;;11.48;33.09;101438.22;5379817;33;33971;-88
2022/03/28 07:24:05;;;;;;;21.45;8.68;;;;;;;11.38;31.54;101426.72;5380964;33;33678;-88
2022/03/28 07:27:08;;;;;;;21.30;8.40;;;;;;;11.70;31.57;101425.22;5379540;33;32607;-86
2022/03/28 07:30:12;;;;;;;17.55;8.30;;;;;;;11.90;30.76;101420.47;5370452;33;33633;-86
2022/03/28 07:33:15;;;;;;;17.70;8.57;;;;;;;12.04;29.83;101427.97;5369672;33;35015;-86
2022/03/28 07:36:20;;;;;;;22.23;8.20;;;;;;;12.00;30.45;101423.91;5355968;33;34160;-86
2022/03/28 07:39:24;;;;;;;19.20;8.40;;;;;;;12.06;29.42;101425.97;5362325;33;35263;-86
2022/03/28 07:42:28;;;;;;;22.80;8.57;;;;;;;12.21;29.90;101426.19;5373317;32;34044;-86
2022/03/28 07:45:33;;;;;;;21.33;8.48;;;;;;;12.30;28.76;101427.06;5369504;33;32981;-85
2022/03/28 07:48:36;;;;;;;19.17;8.57;;;;;;;12.18;28.58;101421.97;5366132;33;34523;-86
2022/03/28 07:51:39;;;;;;;18.15;7.82;;;;;;;12.43;29.28;101422.91;5366451;33;33924;-87
2022/03/28 07:54:43;;;;;;;21.90;8.18;;;;;;;12.43;27.90;101413.94;5369618;33;33795;-87
2022/03/28 07:57:46;;;;;;;22.75;8.35;;;;;;;12.63;28.18;101420.72;5366451;33;33913;-87
2022/03/28 08:00:51;;;;;;;18.23;8.75;;;;;;;13.04;28.45;101411.84;5377621;33;33459;-85
2022/03/28 08:03:54;;;;;;;17.90;7.60;;;;;;;13.13;28.08;101419.81;5376216;33;33978;-86
2022/03/28 08:06:58;;;;;;;19.65;9.38;;;;;;;13.12;27.66;101414.53;5379997;33;34120;-87
2022/03/28 08:10:05;;;;;;;19.75;8.82;;;;;;;13.02;27.68;101408.47;5367269;33;33436;-86
2022/03/28 08:13:09;;;;;;;19.92;9.10;;;;;;;13.24;27.94;101405.06;5371821;33;33711;-87
2022/03/28 08:16:13;;;;;;;22.55;8.63;;;;;;;13.24;27.83;101402.38;5382966;33;33115;-86
2022/03/28 08:19:16;;;;;;;21.45;9.18;;;;;;;13.22;27.39;101396.31;5374628;33;34486;-86
2022/03/28 08:22:19;;;;;;;22.75;9.93;;;;;;;13.35;27.64;101391.25;5369308;33;33556;-87
2022/03/28 08:25:22;;;;;;;27.58;11.00;;;;;;;13.63;27.23;101388.16;5377495;33;34184;-87
2022/03/28 08:28:26;;;;;;;23.73;9.85;;;;;;;13.75;27.41;101392.19;5366564;33;34557;-86
2022/03/28 08:31:30;;;;;;;19.40;8.82;;;;;;;13.87;27.27;101386.37;5374545;33;34653;-87
2022/03/28 08:34:33;;;;;;;18.37;7.90;;;;;;;13.97;27.88;101381.59;5370127;33;33888;-87
2022/03/28 08:37:36;;;;;;;14.18;7.10;;;;;;;14.08;27.95;101375.81;5378774;33;34589;-87
2022/03/28 08:40:43;;;;;;;13.80;7.50;;;;;;;14.11;27.71;101375.44;5365654;33;34827;-87
2022/03/28 08:43:46;;;;;;;22.35;7.68;;;;;;;14.01;27.81;101369.37;5366919;33;34208;-87
2022/03/28 08:46:53;;;;;;;21.52;7.40;;;;;;;14.29;27.74;101361.63;5379253;33;33907;-88
2022/03/28 08:49:56;;;;;;;32.83;8.95;;;;;;;14.34;27.68;101369.25;5376967;33;33711;-87
2022/03/28 08:52:59;;;;;;;34.50;9.10;;;;;;;14.52;28.57;101359.84;5361043;33;132225;-90
2022/03/28 08:56:03;;;;;;;21.62;7.95;;;;;;;14.62;28.96;101354.16;5362265;33;34572;-91
2022/03/28 08:59:26;;;;;;;16.02;7.40;;;;;;;14.79;29.12;101359.47;5375221;33;33885;-88
2022/03/28 09:02:49;;;;;;;42.72;9.63;;;;;;;14.88;28.54;101350.25;5393182;33;35434;-88
2022/03/28 09:05:52;;;;;;;24.45;8.07;;;;;;;14.85;28.20;101339.75;5371021;33;33654;-87
2022/03/28 09:09:09;;;;;;;23.08;8.63;;;;;;;15.16;28.62;101342.37;5380067;33;34075;-88
2022/03/28 09:12:13;;;;;;;20.08;8.85;;;;;;;15.11;29.38;101339.38;5377347;33;33685;-87
2022/03/28 09:15:18;;;;;;;19.27;8.23;;;;;;;15.11;29.46;101336.66;5371154;33;33771;-88
2022/03/28 09:18:31;;;;;;;24.35;8.88;;;;;;;15.33;30.31;101341.19;5366264;33;35681;-88
2022/03/28 09:21:34;;;;;;;28.70;9.13;;;;;;;15.56;30.22;101338.41;5364849;33;35007;-87
2022/03/28 09:24:38;;;;;;;28.92;8.55;;;;;;;15.54;30.61;101335.03;5369134;33;34173;-88
2022/03/28 09:27:41;;;;;;;29.80;10.07;;;;;;;15.58;30.49;101336.31;5381230;33;33933;-87
2022/03/28 09:30:44;;;;;;;22.85;8.55;;;;;;;15.77;30.32;101329.53;5364160;33;33877;-87
2022/03/28 09:34:01;;;;;;;23.83;8.55;;;;;;;15.49;30.98;101315.72;5379111;33;35325;-87
2022/03/28 09:37:04;;;;;;;28.30;9.13;;;;;;;15.82;30.96;101318.09;5376987;33;33883;-87
2022/03/28 09:40:24;;;;;;;24.00;9.02;;;;;;;16.16;31.32;101306.59;5364349;33;33888;-87
2022/03/28 09:43:31;;;;;;;20.67;8.75;;;;;;;16.26;30.50;101312.56;5366994;33;33952;-87
2022/03/28 09:46:37;;;;;;;20.60;8.43;;;;;;;16.13;31.59;101301.53;5370856;33;33826;-87
2022/03/28 09:49:42;;;;;;;17.55;7.97;;;;;;;16.15;31.33;101293.22;5376348;33;33570;-87
2022/03/28 09:52:45;;;;;;;16.52;8.40;;;;;;;16.27;31.80;101287.06;5379283;33;33593;-87
2022/03/28 09:55:51;;;;;;;16.58;8.73;;;;;;;16.42;31.24;101287.00;5378614;33;35152;-90
2022/03/28 09:59:01;;;;;;;20.48;8.52;;;;;;;16.72;30.87;101284.16;5371118;33;34504;-91
2022/03/28 10:02:22;;;;;;;17.85;8.10;;;;;;;16.83;31.11;101275.50;5369229;33;33873;-88
2022/03/28 10:05:28;;;;;;;23.98;9.00;;;;;;;17.08;31.27;101273.19;5366140;33;34755;-87
2022/03/28 10:08:32;;;;;;;16.52;8.73;;;;;;;17.09;30.82;101263.13;5361981;33;34623;-87
2022/03/28 10:11:38;;;;;;;13.60;7.15;;;;;;;17.37;30.42;101250.28;5363951;33;33964;-88
2022/03/28 10:14:42;;;;;;;14.38;7.25;;;;;;;17.51;30.65;101250.37;5359946;33;35084;-88
2022/03/28 10:17:47;;;;;;;13.02;7.43;;;;;;;17.81;31.02;101243.63;5375843;33;34370;-88
2022/03/28 10:20:54;;;;;;;19.10;7.55;;;;;;;18.15;30.41;101241.00;5377320;33;34494;-87
2022/03/28 10:24:08;;;;;;;20.55;7.57;;;;;;;18.07;30.38;101240.13;5367274;33;35321;-87
2022/03/28 10:27:13;;;;;;;13.82;7.87;;;;;;;18.20;30.45;101228.44;5395792;33;34907;-87
2022/03/28 10:30:20;;;;;;;15.05;7.10;;;;;;;18.24;30.76;101226.94;5397198;33;35026;-87
2022/03/28 10:33:23;;;;;;;13.90;7.37;;;;;;;18.20;31.24;101213.97;5383420;33;34124;-87
2022/03/28 10:36:30;;;;;;;13.90;7.62;;;;;;;18.53;30.64;101209.34;5370353;33;34967;-87
2022/03/28 10:39:37;;;;;;;11.63;7.22;;;;;;;18.60;30.70;101206.63;5391622;33;35473;-87
2022/03/28 10:42:48;;;;;;;13.75;7.12;;;;;;;18.80;31.61;101196.56;5392373;33;35435;-87
2022/03/28 10:46:02;;;;;;;16.10;7.47;;;;;;;19.00;30.43;101184.78;5385226;33;35367;-87
2022/03/28 10:49:07;;;;;;;15.32;7.07;;;;;;;18.94;30.25;101182.91;5374684;33;33773;-88
2022/03/28 10:52:14;;;;;;;13.20;7.53;;;;;;;19.25;30.84;101174.84;5364676;33;34636;-88
2022/03/28 10:55:17;;;;;;;16.40;7.20;;;;;;;19.82;29.87;101163.25;5389560;33;34656;-88
2022/03/28 10:58:26;;;;;;;12.00;7.07;;;;;;;19.85;29.57;101158.16;5378708;33;35238;-87
2022/03/28 11:01:37;;;;;;;14.63;7.07;;;;;;;19.89;29.41;101156.69;5381150;33;33935;-87
2022/03/28 11:04:47;;;;;;;12.90;6.80;;;;;;;20.12;29.93;101139.69;5382580;33;35377;-92
2022/03/28 11:08:01;;;;;;;11.93;6.40;;;;;;;20.28;29.23;101153.88;5386501;33;33601;-88
2022/03/28 11:11:30;;;;;;;13.82;6.25;;;;;;;20.65;29.37;101135.69;5386467;33;34153;-88
2022/03/28 11:14:43;;;;;;;15.47;7.63;;;;;;;21.10;28.46;101121.69;5380788;33;33885;-87
2022/03/28 11:17:54;;;;;;;10.40;6.18;;;;;;;21.42;27.70;101122.38;5380082;33;34949;-87
2022/03/28 11:20:57;;;;;;;11.82;6.00;;;;;;;21.55;28.20;101113.12;5381407;33;35517;-87
2022/03/28 11:24:09;;;;;;;10.10;6.97;;;;;;;22.14;27.26;101102.28;5386124;33;34685;-87
2022/03/28 11:27:17;;;;;;;8.25;5.80;;;;;;;22.45;26.91;101092.09;5378323;33;34674;-87
2022/03/28 11:30:20;;;;;;;15.05;6.95;;;;;;;21.93;27.85;101087.25;5382768;33;33960;-87
2022/03/28 11:33:28;;;;;;;11.18;6.45;;;;;;;22.51;26.94;101083.72;5384820;33;33937;-88
2022/03/28 11:36:32;;;;;;;11.15;6.45;;;;;;;22.96;26.44;101076.75;5389091;33;32502;-87
2022/03/28 11:39:58;;;;;;;12.15;5.85;;;;;;;23.57;25.49;101068.84;5381336;33;34545;-87
2022/03/28 11:43:01;;;;;;;11.75;6.12;;;;;;;24.47;25.03;101056.91;5385222;33;34289;-87
2022/03/28 11:46:12;;;;;;;14.95;5.47;;;;;;;24.50;24.51;101047.31;5384802;33;34361;-87
2022/03/28 11:49:15;;;;;;;12.73;5.82;;;;;;;25.50;23.83;101029.47;5393396;33;34232;-87
2022/03/28 11:52:23;;;;;;;12.27;5.57;;;;;;;26.18;22.68;101024.28;5404238;33;33758;-87
2022/03/28 11:55:27;;;;;;;12.30;5.47;;;;;;;26.44;22.03;101016.97;5394128;33;35494;-90
2022/03/28 11:58:31;;;;;;;8.93;5.25;;;;;;;27.55;21.00;101003.78;5380145;33;35412;-92
2022/03/28 12:01:36;;;;;;;11.90;5.25;;;;;;;28.47;19.83;100994.56;5392967;33;34159;-88
2022/03/28 12:04:47;;;;;;;9.68;5.05;;;;;;;27.77;20.78;100989.66;5389730;33;33900;-88
2022/03/28 12:07:50;;;;;;;13.10;6.18;;;;;;;28.39;20.44;100978.50;5380208;33;34103;-88
2022/03/28 12:10:53;;;;;;;12.65;5.35;;;;;;;29.07;19.49;100977.94;5380862;33;35466;-88
2022/03/28 12:13:56;;;;;;;11.07;5.50;;;;;;;29.57;19.13;100957.31;5379371;33;33779;-88
2022/03/28 12:16:59;;;;;;;9.52;5.00;;;;;;;30.49;18.21;100953.59;5367113;33;33881;-87
2022/03/28 12:20:07;;;;;;;8.30;5.05;;;;;;;30.82;18.17;100950.94;5379171;33;34681;-88
2022/03/28 12:23:15;;;;;;;9.82;5.00;;;;;;;31.01;17.64;100948.19;5380871;33;35481;-88
2022/03/28 12:26:18;;;;;;;16.87;5.53;;;;;;;32.25;17.02;100931.81;5371405;33;34158;-88
2022/03/28 12:29:21;;;;;;;10.95;5.20;;;;;;;32.55;16.39;100931.50;5362295;33;34325;-88
2022/03/28 12:32:24;;;;;;;8.35;4.53;;;;;;;32.88;15.77;100920.97;5362005;33;34220;-88
2022/03/28 12:35:27;;;;;;;9.70;5.55;;;;;;;33.64;15.51;100916.34;5363647;33;34895;-88
2022/03/28 12:38:33;;;;;;;7.15;5.15;;;;;;;33.45;15.32;100909.28;5376521;33;34008;-88
2022/03/28 12:42:02;;;;;;;8.98;5.18;;;;;;;32.79;15.71;100906.12;5371875;33;34935;-88
2022/03/28 12:45:06;;;;;;;10.52;5.60;;;;;;;32.94;15.51;100884.28;5388517;33;33939;-88
2022/03/28 12:48:15;;;;;;;7.80;5.37;;;;;;;32.04;16.26;100891.59;5371568;33;34481;-88
2022/03/28 12:51:33;;;;;;;11.27;5.72;;;;;;;32.94;15.61;100886.25;5377357;33;33931;-88
2022/03/28 12:54:37;;;;;;;10.13;5.80;;;;;;;32.30;16.21;100870.41;5376763;33;35935;-88
2022/03/28 12:57:50;;;;;;;7.60;5.32;;;;;;;32.25;16.32;100864.94;5374054;33;34160;-88
2022/03/28 13:01:05;;;;;;;7.82;5.93;;;;;;;33.59;15.48;100860.63;5379008;33;34808;-88
2022/03/28 13:04:18;;;;;;;8.30;5.32;;;;;;;33.25;15.41;100844.47;5379212;33;34152;-92
2022/03/28 13:07:23;;;;;;;9.40;5.70;;;;;;;34.08;14.67;100836.34;5388820;33;34289;-89
2022/03/28 13:10:26;;;;;;;10.88;5.53;;;;;;;33.26;15.12;100831.34;5391167;33;34992;-88
2022/03/28 13:13:34;;;;;;;13.25;5.57;;;;;;;32.80;15.62;100826.94;5383232;33;34455;-88
2022/03/28 13:16:37;;;;;;;;;;;;;;;34.08;14.52;100819.56;5385920;33;33954;-88
2022/03/28 13:19:42;;;;;;;12.55;5.53;;;;;;;34.50;14.13;100810.72;5377278;33;35347;-88
2022/03/28 13:22:47;;;;;;;8.05;5.22;;;;;;;35.12;13.97;100801.97;5373994;33;35460;-87
2022/03/28 13:25:51;;;;;;;9.90;5.47;;;;;;;34.73;13.85;100803.03;5379140;33;34757;-87
2022/03/28 13:29:14;;;;;;;10.32;5.75;;;;;;;34.46;14.14;100802.19;5384637;33;34067;-87
2022/03/28 13:32:19;;;;;;;9.68;5.22;;;;;;;33.46;14.70;100788.91;5381218;33;35252;-88
2022/03/28 13:35:23;;;;;;;11.50;5.10;;;;;;;33.95;14.64;100784.16;5381370;33;34738;-88
2022/03/28 13:38:29;;;;;;;9.05;5.87;;;;;;;35.32;13.53;100761.25;5368000;33;34124;-88
2022/03/28 13:41:32;;;;;;;13.25;5.43;;;;;;;34.03;14.42;100763.84;5388129;33;35388;-87
2022/03/28 13:44:36;;;;;;;8.98;5.62;;;;;;;33.33;15.04;100764.72;5397081;33;34897;-89
2022/03/28 13:47:39;;;;;;;13.73;5.50;;;;;;;33.19;15.15;100748.91;5393311;33;33748;-89
2022/03/28 13:50:46;;;;;;;7.80;5.40;;;;;;;34.28;14.42;100747.41;5383449;33;34492;-89
2022/03/28 13:54:09;;;;;;;7.80;5.30;;;;;;;33.42;14.92;100743.25;5377059;33;33821;-89
2022/03/28 13:57:12;;;;;;;10.60;5.60;;;;;;;34.16;14.47;100730.47;5388486;33;35404;-89
2022/03/28 14:00:16;;;;;;;10.68;5.87;;;;;;;34.87;14.46;100725.34;5385024;33;35015;-89
2022/03/28 14:03:42;;;;;;;11.38;5.30;;;;;;;35.60;13.23;100713.19;5384319;33;35525;-88
2022/03/28 14:06:46;;;;;;;11.73;5.68;;;;;;;34.67;13.88;100707.28;5374715;33;34295;-88
2022/03/28 14:09:50;;;;;;;9.63;5.40;;;;;;;33.68;14.74;100712.66;5373334;33;34374;-88
2022/03/28 14:12:52;;;;;;;7.40;5.35;;;;;;;33.46;14.88;100698.75;5354973;33;35383;-92
2022/03/28 14:15:57;;;;;;;10.02;6.30;;;;;;;33.73;14.79;100694.94;5366975;33;33955;-92
2022/03/28 14:19:00;;;;;;;16.95;6.60;;;;;;;33.61;14.87;100685.22;5366873;33;34041;-93
2022/03/28 14:22:04;;;;;;;11.38;5.82;;;;;;;33.76;14.96;100685.91;5366586;33;35711;-89
2022/03/28 14:25:09;;;;;;;25.35;6.07;;;;;;;32.33;15.71;100668.31;5366885;33;34476;-89
2022/03/28 14:28:13;;;;;;;13.70;5.72;;;;;;;31.93;16.12;100664.56;5371961;33;34039;-88
2022/03/28 14:31:16;;;;;;;7.85;5.53;;;;;;;31.29;16.69;100662.53;5398125;33;34601;-88
2022/03/28 14:34:20;;;;;;;10.68;5.97;;;;;;;30.28;17.51;100650.22;5385948;33;34464;-88
2022/03/28 14:37:23;;;;;;;10.30;6.00;;;;;;;30.63;17.38;100642.41;5385818;33;34037;-88
2022/03/28 14:40:27;;;;;;;11.07;6.40;;;;;;;31.59;16.30;100643.56;5385211;33;34455;-88
2022/03/28 14:43:31;;;;;;;8.65;5.53;;;;;;;30.39;17.29;100636.16;5385142;33;33948;-88
2022/03/28 14:49:55;;;;;;;10.38;6.60;;;;;;;28.29;19.32;100632.41;5388260;33;34922;-88
2022/03/28 14:52:59;;;;;;;11.27;6.07;;;;;;;26.26;21.28;100621.84;5383901;33;33793;-87
2022/03/28 14:56:05;;;;;;;16.75;6.93;;;;;;;24.70;23.18;100620.78;5381694;33;34041;-88
2022/03/28 14:59:31;;;;;;;8.52;6.28;;;;;;;23.93;24.25;100622.06;5386017;33;34416;-87
2022/03/28 15:02:35;;;;;;;9.00;6.07;;;;;;;23.28;25.15;100621.06;5383645;33;33756;-87
2022/03/28 15:05:39;;;;;;;11.73;5.78;;;;;;;22.90;25.75;100624.66;5383785;33;33766;-87
2022/03/28 15:08:43;;;;;;;13.07;6.40;;;;;;;22.30;26.48;100618.84;5383222;33;34948;-87
2022/03/28 15:11:46;;;;;;;14.70;7.18;;;;;;;21.95;27.23;100614.38;5384406;33;34159;-88
2022/03/28 15:14:49;;;;;;;15.68;6.80;;;;;;;21.66;27.45;100604.53;5384477;33;34143;-88
2022/03/28 15:17:52;;;;;;;11.15;6.95;;;;;;;21.54;27.81;100603.75;5387350;33;34242;-88
2022/03/28 15:20:55;;;;;;;13.45;7.18;;;;;;;21.36;28.13;100608.34;5390543;33;35916;-88
2022/03/28 15:23:59;;;;;;;14.43;7.90;;;;;;;21.16;28.42;100597.78;5381342;33;34132;-87
2022/03/28 15:27:03;;;;;;;16.58;8.07;;;;;;;20.97;28.39;100596.25;5380640;33;33967;-87
2022/03/28 15:30:06;;;;;;;13.40;7.10;;;;;;;20.81;28.74;100595.12;5384944;33;34683;-87
2022/03/28 15:33:10;;;;;;;13.88;8.07;;;;;;;20.65;29.22;100583.00;5385240;33;33572;-86
2022/03/28 15:36:13;;;;;;;11.32;7.12;;;;;;;20.52;29.07;100586.81;5380635;33;33861;-86
2022/03/28 15:39:17;;;;;;;16.95;8.32;;;;;;;20.42;29.23;100581.09;5383422;33;33889;-86
2022/03/28 15:42:21;;;;;;;13.50;7.87;;;;;;;20.36;29.38;100582.03;5371586;33;35321;-86
2022/03/28 15:45:23;;;;;;;15.05;8.10;;;;;;;20.31;29.34;100577.28;5384813;33;32638;-86
2022/03/28 15:48:27;;;;;;;11.32;7.65;;;;;;;20.24;29.92;100570.25;5404430;33;33757;-86
2022/03/28 15:51:30;;;;;;;13.50;7.95;;;;;;;20.20;29.46;100567.16;5406549;33;34424;-90
